createdAt,value
2018-05-24T00:01:03.587Z,81.23
2018-05-24T00:02:12.238Z,81.81
2018-05-24T00:03:20.884Z,79.7
2018-05-24T00:04:29.522Z,81.13
2018-05-24T00:05:38.443Z,82.09
2018-05-24T00:06:47.087Z,82.29
2018-05-24T00:07:56.133Z,82.43
2018-05-24T00:09:04.756Z,82.53
2018-05-24T00:10:13.412Z,83.59
2018-05-24T00:11:22.053Z,82.53
2018-05-24T00:12:30.708Z,81.86
2018-05-24T00:13:39.349Z,82.34
2018-05-24T00:14:47.997Z,82.43
2018-05-24T00:15:56.640Z,82.53
2018-05-24T00:17:05.294Z,82.43
2018-05-24T00:18:13.944Z,82.43
2018-05-24T00:19:22.583Z,82.82
2018-05-24T00:20:31.225Z,83.59
2018-05-24T00:21:39.868Z,83.11
2018-05-24T00:22:48.523Z,83.3
2018-05-24T00:23:57.168Z,83.39
2018-05-24T00:25:05.821Z,83.39
2018-05-24T00:26:14.462Z,82.78
2018-05-24T00:27:23.111Z,83.87
2018-05-24T00:28:31.769Z,83.68
2018-05-24T00:29:40.681Z,83.54
2018-05-24T00:30:49.327Z,83.54
2018-05-24T00:31:57.975Z,83.26
2018-05-24T00:33:06.888Z,83.45
2018-05-24T00:34:15.535Z,82.68
2018-05-24T00:35:24.210Z,83.36
2018-05-24T00:36:32.824Z,83.64
2018-05-24T00:37:41.471Z,83.36
2018-05-24T00:38:50.117Z,82.4
2018-05-24T00:39:58.766Z,82.4
2018-05-24T00:41:07.413Z,82.59
2018-05-24T00:42:16.060Z,82.49
2018-05-24T00:43:24.709Z,83.06
2018-05-24T00:44:33.360Z,82.87
2018-05-24T00:45:42.002Z,83.06
2018-05-24T00:46:50.648Z,84.12
2018-05-24T00:47:59.299Z,84.5
2018-05-24T00:49:07.946Z,84.12
2018-05-24T00:50:16.853Z,84.5
2018-05-24T00:51:25.501Z,84.31
2018-05-24T00:52:34.140Z,83.64
2018-05-24T00:53:42.791Z,83.54
2018-05-24T00:54:51.437Z,83.54
2018-05-24T00:56:00.085Z,83.06
2018-05-24T00:57:08.732Z,82.59
2018-05-24T00:58:17.376Z,82.49
2018-05-24T00:59:26.028Z,82.01
2018-05-24T01:00:34.676Z,81.82
2018-05-24T01:01:43.321Z,81.82
2018-05-24T01:02:51.966Z,82.87
2018-05-24T01:04:00.612Z,83.54
2018-05-24T01:05:09.262Z,83.54
2018-05-24T01:06:18.170Z,83.73
2018-05-24T01:07:26.810Z,83.54
2018-05-24T01:08:35.460Z,83.16
2018-05-24T01:09:44.103Z,83.06
2018-05-24T01:10:52.753Z,82.3
2018-05-24T01:12:01.393Z,82.11
2018-05-24T01:13:10.041Z,83.06
2018-05-24T01:14:18.950Z,82.68
2018-05-24T01:15:27.598Z,82.97
2018-05-24T01:16:36.245Z,82.68
2018-05-24T01:17:44.886Z,83.06
2018-05-24T01:18:53.533Z,83.4
2018-05-24T01:20:02.179Z,83.4
2018-05-24T01:21:10.829Z,83.22
2018-05-24T01:22:19.472Z,84.46
2018-05-24T01:23:28.117Z,84.36
2018-05-24T01:24:36.763Z,84.84
2018-05-24T01:25:45.404Z,84.36
2018-05-24T01:26:54.323Z,84.36
2018-05-24T01:28:02.967Z,84.27
2018-05-24T01:29:11.618Z,84.65
2018-05-24T01:30:20.526Z,84.17
2018-05-24T01:31:29.437Z,85.03
2018-05-24T01:32:38.083Z,84.17
2018-05-24T01:33:46.731Z,84.17
2018-05-24T01:34:55.380Z,84.17
2018-05-24T01:36:04.023Z,84.36
2018-05-24T01:37:12.671Z,84.75
2018-05-24T01:38:21.316Z,85.32
2018-05-24T01:39:30.227Z,84.84
2018-05-24T01:40:39.130Z,85.89
2018-05-24T01:41:47.775Z,85.22
2018-05-24T01:42:56.420Z,85.61
2018-05-24T01:44:05.144Z,85.51
2018-05-24T01:45:13.711Z,85.89
2018-05-24T01:46:22.362Z,85.71
2018-05-24T01:47:31.007Z,85.41
2018-05-24T01:48:39.660Z,85.32
2018-05-24T01:49:48.301Z,85.13
2018-05-24T01:50:57.210Z,86.37
2018-05-24T01:52:05.853Z,85.32
2018-05-24T01:53:14.492Z,85.22
2018-05-24T01:54:23.142Z,84.84
2018-05-24T01:55:31.786Z,85.13
2018-05-24T01:56:40.432Z,85.22
2018-05-24T01:57:49.075Z,84.75
2018-05-24T01:58:57.987Z,84.5
2018-05-24T02:00:06.637Z,83.93
2018-05-24T02:01:15.280Z,83.64
2018-05-24T02:02:23.922Z,84.22
2018-05-24T02:03:32.573Z,83.73
2018-05-24T02:04:41.217Z,83.64
2018-05-24T02:05:49.866Z,83.54
2018-05-24T02:06:58.778Z,82.97
2018-05-24T02:08:07.428Z,82.49
2018-05-24T02:09:16.075Z,82.87
2018-05-24T02:10:24.987Z,82.59
2018-05-24T02:11:33.635Z,82.3
2018-05-24T02:12:42.273Z,82.3
2018-05-24T02:13:50.925Z,82.49
2018-05-24T02:14:59.564Z,82.49
2018-05-24T02:16:08.758Z,81.82
2018-05-24T02:17:17.401Z,82.11
2018-05-24T02:18:26.043Z,82.11
2018-05-24T02:19:34.688Z,81.54
2018-05-24T02:20:43.340Z,81.15
2018-05-24T02:21:51.980Z,82.01
2018-05-24T02:23:01.160Z,82.2
2018-05-24T02:24:09.801Z,82.4
2018-05-24T02:25:18.459Z,81.86
2018-05-24T02:26:27.101Z,82.78
2018-05-24T02:27:35.746Z,82.68
2018-05-24T02:28:44.651Z,83.06
2018-05-24T02:29:53.823Z,83.73
2018-05-24T02:31:02.482Z,83.83
2018-05-24T02:32:11.388Z,83.93
2018-05-24T02:33:20.039Z,83.73
2018-05-24T02:34:28.937Z,83.73
2018-05-24T02:35:37.867Z,83.45
2018-05-24T02:36:46.771Z,83.54
2018-05-24T02:37:55.429Z,83.64
2018-05-24T02:39:04.341Z,82.97
2018-05-24T02:40:12.996Z,82.97
2018-05-24T02:41:21.644Z,83.16
2018-05-24T02:42:30.295Z,82.87
2018-05-24T02:43:38.933Z,83.45
2018-05-24T02:44:47.846Z,83.45
2018-05-24T02:45:56.769Z,84.12
2018-05-24T02:47:05.415Z,84.22
2018-05-24T02:48:14.064Z,84.31
2018-05-24T02:49:22.706Z,84.69
2018-05-24T02:50:31.356Z,85.08
2018-05-24T02:51:40.266Z,84.59
2018-05-24T02:52:48.926Z,85.36
2018-05-24T02:53:57.575Z,85.27
2018-05-24T02:55:06.492Z,85.27
2018-05-24T02:56:15.420Z,85.46
2018-05-24T02:57:24.062Z,85.94
2018-05-24T02:58:32.962Z,85.65
2018-05-24T02:59:42.414Z,85.55
2018-05-24T03:00:51.058Z,85.36
2018-05-24T03:01:59.773Z,85.27
2018-05-24T03:03:08.717Z,85.55
2018-05-24T03:04:17.662Z,85.46
2018-05-24T03:05:26.972Z,86.41
2018-05-24T03:06:36.087Z,86.41
2018-05-24T03:07:44.943Z,86.41
2018-05-24T03:08:53.594Z,86.32
2018-05-24T03:10:02.252Z,86.51
2018-05-24T03:11:11.153Z,86.8
2018-05-24T03:12:19.820Z,86.32
2018-05-24T03:13:28.724Z,86.61
2018-05-24T03:14:37.641Z,86.04
2018-05-24T03:15:46.286Z,85.94
2018-05-24T03:16:54.942Z,86.32
2018-05-24T03:18:03.584Z,86.41
2018-05-24T03:19:12.231Z,86.8
2018-05-24T03:20:20.873Z,86.37
2018-05-24T03:21:29.520Z,86.37
2018-05-24T03:22:38.167Z,86.18
2018-05-24T03:23:46.817Z,86.37
2018-05-24T03:24:55.738Z,86.08
2018-05-24T03:26:04.379Z,85.32
2018-05-24T03:27:13.023Z,85.22
2018-05-24T03:28:21.677Z,84.75
2018-05-24T03:29:30.318Z,85.03
2018-05-24T03:30:38.963Z,85.22
2018-05-24T03:31:47.616Z,85.32
2018-05-24T03:32:56.263Z,85.03
2018-05-24T03:34:04.914Z,85.32
2018-05-24T03:35:13.616Z,85.32
2018-05-24T03:36:22.203Z,85.51
2018-05-24T03:37:31.117Z,85.8
2018-05-24T03:38:40.033Z,85.51
2018-05-24T03:39:48.676Z,85.8
2018-05-24T03:40:57.322Z,86.08
2018-05-24T03:42:06.236Z,86.08
2018-05-24T03:43:15.141Z,86.18
2018-05-24T03:44:24.062Z,85.89
2018-05-24T03:45:32.706Z,86.66
2018-05-24T03:46:41.349Z,86.28
2018-05-24T03:47:50.273Z,86.18
2018-05-24T03:48:59.185Z,85.8
2018-05-24T03:50:08.089Z,87.14
2018-05-24T03:51:16.733Z,86.66
2018-05-24T03:52:25.639Z,86.37
2018-05-24T03:53:34.560Z,86.57
2018-05-24T03:54:43.204Z,86.47
2018-05-24T03:55:51.849Z,86.76
2018-05-24T03:57:00.494Z,87.14
2018-05-24T03:58:09.140Z,86.76
2018-05-24T03:59:17.784Z,86.94
2018-05-24T04:00:26.436Z,87.04
2018-05-24T04:01:35.084Z,86.76
2018-05-24T04:02:43.723Z,86.94
2018-05-24T04:03:52.370Z,86.37
2018-05-24T04:05:01.014Z,86.9
2018-05-24T04:06:09.665Z,87.37
2018-05-24T04:07:18.305Z,86.99
2018-05-24T04:08:26.954Z,87.95
2018-05-24T04:09:35.600Z,88.13
2018-05-24T04:10:44.251Z,88.13
2018-05-24T04:11:53.250Z,88.62
2018-05-24T04:13:02.081Z,88.62
2018-05-24T04:14:10.803Z,89.58
2018-05-24T04:15:19.370Z,88.9
2018-05-24T04:16:28.017Z,88.81
2018-05-24T04:17:36.664Z,88.81
2018-05-24T04:18:45.306Z,88.04
2018-05-24T04:19:53.951Z,88.04
2018-05-24T04:21:02.605Z,88.04
2018-05-24T04:22:11.246Z,87.95
2018-05-24T04:23:20.035Z,88.23
2018-05-24T04:24:28.949Z,88.23
2018-05-24T04:25:37.601Z,88.62
2018-05-24T04:26:46.245Z,88.62
2018-05-24T04:27:54.897Z,89.29
2018-05-24T04:29:03.532Z,89.67
2018-05-24T04:30:12.457Z,89.38
2018-05-24T04:31:21.102Z,89.19
2018-05-24T04:32:30.019Z,89.29
2018-05-24T04:33:38.655Z,89.09
2018-05-24T04:34:47.304Z,88.81
2018-05-24T04:35:55.954Z,89.67
2018-05-24T04:37:04.603Z,89.58
2018-05-24T04:38:13.251Z,88.9
2018-05-24T04:39:21.886Z,89.58
2018-05-24T04:40:30.534Z,89.86
2018-05-24T04:41:39.180Z,89.19
2018-05-24T04:42:47.884Z,89.76
2018-05-24T04:43:56.472Z,89.29
2018-05-24T04:45:05.123Z,89.58
2018-05-24T04:46:13.765Z,89.76
2018-05-24T04:47:22.420Z,89.38
2018-05-24T04:48:31.324Z,88.28
2018-05-24T04:49:39.970Z,88.95
2018-05-24T04:50:48.613Z,88.85
2018-05-24T04:51:57.273Z,89.14
2018-05-24T04:53:05.914Z,89.62
2018-05-24T04:54:14.556Z,88.85
2018-05-24T04:55:23.199Z,89.43
2018-05-24T04:56:31.843Z,89.14
2018-05-24T04:57:40.769Z,89.04
2018-05-24T04:58:49.411Z,88.66
2018-05-24T04:59:58.061Z,89.72
2018-05-24T05:01:06.698Z,89.04
2018-05-24T05:02:15.350Z,89.33
2018-05-24T05:03:24.257Z,88.37
2018-05-24T05:04:33.444Z,89.62
2018-05-24T05:05:42.081Z,89.33
2018-05-24T05:06:50.735Z,88.76
2018-05-24T05:07:59.380Z,89.14
2018-05-24T05:09:08.292Z,88.76
2018-05-24T05:10:16.928Z,89.23
2018-05-24T05:11:25.581Z,87.8
2018-05-24T05:12:34.492Z,87.99
2018-05-24T05:13:43.142Z,88.32
2018-05-24T05:14:51.789Z,88.32
2018-05-24T05:16:00.428Z,88.03
2018-05-24T05:17:09.077Z,87.9
2018-05-24T05:18:17.992Z,87.94
2018-05-24T05:19:27.188Z,87.27
2018-05-24T05:20:36.203Z,86.79
2018-05-24T05:21:44.848Z,87.7
2018-05-24T05:22:53.499Z,88.03
2018-05-24T05:24:02.405Z,88.03
2018-05-24T05:25:11.107Z,87.94
2018-05-24T05:26:19.704Z,88.18
2018-05-24T05:27:28.354Z,88.42
2018-05-24T05:28:36.997Z,88.13
2018-05-24T05:29:45.642Z,86.98
2018-05-24T05:30:54.297Z,85.25
2018-05-24T05:32:02.942Z,86.98
2018-05-24T05:33:11.591Z,87.08
2018-05-24T05:34:20.236Z,87.17
2018-05-24T05:35:29.148Z,87.17
2018-05-24T05:36:37.789Z,87.55
2018-05-24T05:37:46.711Z,86.98
2018-05-24T05:38:55.357Z,87.46
2018-05-24T05:40:04.275Z,87.08
2018-05-24T05:41:12.919Z,87.17
2018-05-24T05:42:21.576Z,84.01
2018-05-24T05:43:30.213Z,83.25
2018-05-24T05:44:38.868Z,84.97
2018-05-24T05:45:47.782Z,85.25
2018-05-24T05:46:56.440Z,86.5
2018-05-24T05:48:05.085Z,86.16
2018-05-24T05:49:13.725Z,84.44
2018-05-24T05:50:22.369Z,83.95
2018-05-24T05:51:31.022Z,84.25
2018-05-24T05:52:39.948Z,83.58
2018-05-24T05:53:48.590Z,81.95
2018-05-24T05:54:57.242Z,82.08
2018-05-24T05:56:06.143Z,81.98
2018-05-24T05:57:14.799Z,80.93
2018-05-24T05:58:23.440Z,81.22
2018-05-24T05:59:32.090Z,82.08
2018-05-24T06:00:40.728Z,82.65
2018-05-24T06:01:49.475Z,82.46
2018-05-24T06:02:58.039Z,82.51
2018-05-24T06:04:06.812Z,81.35
2018-05-24T06:05:15.346Z,79.34
2018-05-24T06:06:23.996Z,78
2018-05-24T06:07:32.646Z,80.49
2018-05-24T06:08:41.293Z,78.09
2018-05-24T06:09:49.942Z,78.77
2018-05-24T06:10:58.580Z,79.72
2018-05-24T06:12:07.232Z,79.91
2018-05-24T06:13:15.876Z,79.44
2018-05-24T06:14:24.800Z,80.11
2018-05-24T06:15:33.450Z,79.14
2018-05-24T06:16:42.092Z,79.05
2018-05-24T06:17:50.736Z,78.67
2018-05-24T06:18:59.388Z,80.78
2018-05-24T06:20:08.032Z,80.2
2018-05-24T06:21:16.688Z,78.19
2018-05-24T06:22:25.332Z,77.51
2018-05-24T06:23:33.984Z,77.42
2018-05-24T06:24:42.632Z,77.42
2018-05-24T06:25:51.279Z,78.28
2018-05-24T06:26:59.926Z,78.38
2018-05-24T06:28:08.570Z,78.47
2018-05-24T06:29:17.223Z,78.47
2018-05-24T06:30:26.154Z,79.05
2018-05-24T06:31:34.801Z,78.7
2018-05-24T06:32:43.450Z,79.09
2018-05-24T06:33:52.103Z,78.7
2018-05-24T06:35:00.750Z,78.61
2018-05-24T06:36:09.502Z,77.08
2018-05-24T06:37:18.235Z,77.56
2018-05-24T06:38:26.793Z,77.94
2018-05-24T06:39:35.438Z,79.19
2018-05-24T06:40:44.086Z,78.13
2018-05-24T06:41:52.729Z,77.65
2018-05-24T06:43:01.380Z,77.75
2018-05-24T06:44:10.028Z,79.14
2018-05-24T06:45:18.678Z,78.23
2018-05-24T06:46:27.404Z,78.13
2018-05-24T06:47:35.973Z,77.65
2018-05-24T06:48:44.896Z,77.26
2018-05-24T06:49:53.543Z,77.36
2018-05-24T06:51:02.196Z,77.5
2018-05-24T06:52:11.104Z,76.92
2018-05-24T06:53:19.752Z,76.25
2018-05-24T06:54:28.667Z,76.82
2018-05-24T06:55:37.321Z,75.77
2018-05-24T06:56:45.965Z,75.57
2018-05-24T06:57:54.615Z,75.48
2018-05-24T06:59:03.260Z,76.06
2018-05-24T07:00:11.914Z,75.96
2018-05-24T07:01:20.560Z,76.09
2018-05-24T07:02:29.209Z,76.19
2018-05-24T07:03:38.120Z,75.32
2018-05-24T07:04:46.766Z,74.5
2018-05-24T07:05:55.440Z,74.4
2018-05-24T07:07:04.439Z,73.83
2018-05-24T07:08:13.087Z,72.58
2018-05-24T07:09:21.730Z,71.84
2018-05-24T07:10:30.385Z,71.84
2018-05-24T07:11:39.034Z,71.36
2018-05-24T07:12:47.688Z,70.5
2018-05-24T07:13:56.329Z,70.5
2018-05-24T07:15:04.985Z,69.85
2018-05-24T07:16:14.160Z,70.34
2018-05-24T07:17:22.814Z,69.95
2018-05-24T07:18:31.576Z,69.85
2018-05-24T07:19:40.111Z,70.62
2018-05-24T07:20:48.766Z,71.36
2018-05-24T07:21:57.419Z,72.13
2018-05-24T07:23:06.069Z,71.46
2018-05-24T07:24:14.713Z,70.53
2018-05-24T07:25:23.364Z,70.11
2018-05-24T07:26:32.020Z,71.08
2018-05-24T07:27:40.679Z,71.55
2018-05-24T07:28:49.311Z,71.36
2018-05-24T07:29:57.960Z,70.88
2018-05-24T07:31:07.145Z,72.07
2018-05-24T07:32:15.801Z,72.13
2018-05-24T07:33:24.710Z,72.36
2018-05-24T07:34:33.366Z,72.17
2018-05-24T07:35:42.013Z,72.26
2018-05-24T07:36:50.667Z,72.26
2018-05-24T07:37:59.318Z,72.55
2018-05-24T07:39:07.966Z,72.36
2018-05-24T07:40:16.613Z,71.88
2018-05-24T07:41:25.263Z,71.2
2018-05-24T07:42:33.915Z,71.69
2018-05-24T07:43:42.844Z,71.49
2018-05-24T07:44:51.767Z,72.45
2018-05-24T07:46:00.414Z,71.59
2018-05-24T07:47:09.335Z,71.49
2018-05-24T07:48:17.985Z,72.36
2018-05-24T07:49:26.635Z,70.43
2018-05-24T07:50:35.278Z,70.34
2018-05-24T07:51:43.930Z,70.82
2018-05-24T07:52:52.577Z,71.69
2018-05-24T07:54:01.230Z,71.88
2018-05-24T07:55:09.940Z,72.17
2018-05-24T07:56:18.790Z,72.07
2018-05-24T07:57:27.437Z,71.49
2018-05-24T07:58:36.089Z,71.49
2018-05-24T07:59:44.743Z,71.11
2018-05-24T08:00:53.390Z,71.49
2018-05-24T08:02:02.042Z,70.66
2018-05-24T08:03:11.227Z,70.28
2018-05-24T08:04:19.882Z,69.51
2018-05-24T08:05:28.536Z,69.41
2018-05-24T08:06:37.453Z,70.66
2018-05-24T08:07:46.103Z,71.24
2018-05-24T08:08:54.758Z,69.79
2018-05-24T08:10:03.406Z,70.12
2018-05-24T08:11:12.060Z,70.02
2018-05-24T08:12:20.704Z,70.02
2018-05-24T08:13:29.365Z,69.29
2018-05-24T08:14:38.053Z,68.13
2018-05-24T08:15:46.666Z,67.97
2018-05-24T08:16:55.309Z,66.52
2018-05-24T08:18:03.958Z,65.08
2018-05-24T08:19:12.617Z,66.43
2018-05-24T08:20:21.268Z,67.3
2018-05-24T08:21:29.924Z,67.2
2018-05-24T08:22:38.571Z,67.43
2018-05-24T08:23:47.232Z,66.46
2018-05-24T08:24:55.875Z,66.94
2018-05-24T08:26:04.532Z,66.36
2018-05-24T08:27:13.176Z,66.85
2018-05-24T08:28:22.100Z,66.17
2018-05-24T08:29:30.741Z,65.43
2018-05-24T08:30:39.393Z,65.34
2018-05-24T08:31:48.036Z,63.89
2018-05-24T08:32:56.687Z,64.37
2018-05-24T08:34:05.342Z,65.08
2018-05-24T08:35:14.092Z,64.89
2018-05-24T08:36:23.029Z,64.98
2018-05-24T08:37:31.672Z,64.11
2018-05-24T08:38:40.328Z,64.63
2018-05-24T08:39:48.978Z,62.89
2018-05-24T08:40:57.808Z,62.89
2018-05-24T08:42:06.281Z,62.95
2018-05-24T08:43:14.939Z,62.95
2018-05-24T08:44:23.584Z,63.15
2018-05-24T08:45:32.513Z,62.86
2018-05-24T08:46:41.158Z,62.95
2018-05-24T08:47:49.811Z,63.34
2018-05-24T08:48:58.461Z,63.43
2018-05-24T08:50:07.123Z,63.43
2018-05-24T08:51:15.778Z,63.34
2018-05-24T08:52:24.426Z,64.11
2018-05-24T08:53:33.075Z,65.27
2018-05-24T08:54:41.732Z,64.11
2018-05-24T08:55:50.384Z,65.08
2018-05-24T08:56:59.303Z,62.57
2018-05-24T08:58:08.236Z,64.31
2018-05-24T08:59:16.875Z,64.4
2018-05-24T09:00:25.539Z,64.5
2018-05-24T09:01:34.524Z,65.66
2018-05-24T09:02:43.107Z,64.59
2018-05-24T09:03:51.840Z,63.63
2018-05-24T09:05:00.678Z,65.17
2018-05-24T09:06:09.329Z,64.31
2018-05-24T09:07:17.988Z,64.31
2018-05-24T09:08:26.634Z,65.56
2018-05-24T09:09:35.294Z,64.95
2018-05-24T09:10:44.213Z,65.66
2018-05-24T09:11:52.866Z,65.17
2018-05-24T09:13:01.512Z,63.92
2018-05-24T09:14:10.185Z,63.53
2018-05-24T09:15:18.836Z,63.15
2018-05-24T09:16:27.493Z,63.24
2018-05-24T09:17:36.137Z,64.11
2018-05-24T09:18:44.802Z,63.34
2018-05-24T09:19:53.447Z,64.69
2018-05-24T09:21:02.101Z,64.4
2018-05-24T09:22:10.748Z,64.89
2018-05-24T09:23:19.396Z,64.98
2018-05-24T09:24:28.568Z,65.01
2018-05-24T09:25:37.510Z,64.72
2018-05-24T09:26:46.127Z,63.56
2018-05-24T09:27:55.040Z,62.98
2018-05-24T09:29:03.698Z,63.53
2018-05-24T09:30:12.356Z,64.31
2018-05-24T09:31:21.549Z,64.11
2018-05-24T09:32:30.457Z,64.43
2018-05-24T09:33:39.110Z,64.14
2018-05-24T09:34:47.760Z,63.28
2018-05-24T09:35:56.424Z,62.21
2018-05-24T09:37:05.063Z,62.7
2018-05-24T09:38:13.721Z,62.7
2018-05-24T09:39:22.369Z,62.79
2018-05-24T09:40:31.031Z,62.31
2018-05-24T09:41:39.674Z,62.44
2018-05-24T09:42:48.330Z,62.34
2018-05-24T09:43:56.980Z,61.86
2018-05-24T09:45:05.642Z,61.37
2018-05-24T09:46:14.291Z,61.76
2018-05-24T09:47:22.938Z,61.37
2018-05-24T09:48:31.852Z,61.47
2018-05-24T09:49:40.502Z,61.86
2018-05-24T09:50:49.165Z,62.79
2018-05-24T09:51:58.076Z,62.89
2018-05-24T09:53:06.997Z,62.5
2018-05-24T09:54:15.650Z,63.28
2018-05-24T09:55:24.334Z,62.79
2018-05-24T09:56:33.353Z,63.63
2018-05-24T09:57:42.012Z,64.31
2018-05-24T09:58:50.661Z,64.98
2018-05-24T09:59:59.317Z,64.4
2018-05-24T10:01:07.968Z,64.59
2018-05-24T10:02:16.620Z,64.5
2018-05-24T10:03:25.262Z,64.11
2018-05-24T10:04:34.277Z,63.66
2018-05-24T10:05:42.843Z,63.18
2018-05-24T10:06:51.502Z,63.66
2018-05-24T10:08:00.423Z,62.89
2018-05-24T10:09:09.068Z,63.28
2018-05-24T10:10:17.720Z,63.28
2018-05-24T10:11:26.372Z,63.37
2018-05-24T10:12:35.031Z,63.47
2018-05-24T10:13:43.677Z,63.47
2018-05-24T10:14:52.329Z,65.59
2018-05-24T10:16:00.979Z,64.82
2018-05-24T10:17:09.905Z,63.31
2018-05-24T10:18:18.564Z,63.6
2018-05-24T10:19:27.212Z,63.6
2018-05-24T10:20:35.864Z,62.92
2018-05-24T10:21:44.520Z,63.02
2018-05-24T10:22:53.171Z,63.4
2018-05-24T10:24:01.943Z,62.82
2018-05-24T10:25:10.753Z,62.92
2018-05-24T10:26:19.518Z,62.92
2018-05-24T10:27:28.264Z,63.02
2018-05-24T10:28:37.035Z,63.4
2018-05-24T10:29:45.692Z,64.18
2018-05-24T10:30:54.340Z,64.05
2018-05-24T10:32:03.267Z,64.24
2018-05-24T10:33:11.912Z,64.05
2018-05-24T10:34:20.580Z,64.14
2018-05-24T10:35:29.294Z,63.56
2018-05-24T10:36:38.282Z,64.14
2018-05-24T10:37:47.512Z,64.05
2018-05-24T10:38:56.180Z,64.63
2018-05-24T10:40:04.878Z,65.2
2018-05-24T10:41:13.532Z,66.14
2018-05-24T10:42:22.899Z,66.33
2018-05-24T10:43:31.573Z,66.33
2018-05-24T10:44:40.226Z,66.91
2018-05-24T10:45:48.873Z,66.53
2018-05-24T10:46:57.524Z,67.97
2018-05-24T10:48:06.182Z,67.78
2018-05-24T10:49:14.833Z,68.36
2018-05-24T10:50:23.478Z,68.84
2018-05-24T10:51:32.133Z,68.91
2018-05-24T10:52:40.785Z,69.68
2018-05-24T10:53:49.708Z,69.58
2018-05-24T10:54:58.358Z,68.23
2018-05-24T10:56:07.121Z,68.33
2018-05-24T10:57:15.691Z,68.23
2018-05-24T10:58:24.347Z,68.13
2018-05-24T10:59:33.080Z,67.4
2018-05-24T11:00:41.647Z,66.91
2018-05-24T11:01:50.297Z,66.82
2018-05-24T11:02:59.016Z,66.53
2018-05-24T11:04:07.605Z,67.2
2018-05-24T11:05:16.527Z,66.72
2018-05-24T11:06:25.300Z,66.33
2018-05-24T11:07:34.112Z,65.11
2018-05-24T11:08:42.765Z,64.14
2018-05-24T11:09:51.424Z,64.43
2018-05-24T11:11:00.071Z,63.69
2018-05-24T11:12:08.733Z,62.73
2018-05-24T11:13:17.376Z,62.76
2018-05-24T11:14:26.301Z,63.14
2018-05-24T11:15:34.950Z,61.79
2018-05-24T11:16:43.871Z,61.3
2018-05-24T11:17:52.788Z,61.69
2018-05-24T11:19:01.437Z,61.6
2018-05-24T11:20:10.089Z,61.3
2018-05-24T11:21:18.738Z,61.33
2018-05-24T11:22:27.590Z,60.47
2018-05-24T11:23:36.356Z,61.11
2018-05-24T11:24:45.014Z,61.69
2018-05-24T11:25:53.657Z,61.98
2018-05-24T11:27:02.319Z,62.08
2018-05-24T11:28:10.975Z,62.08
2018-05-24T11:29:19.626Z,62.85
2018-05-24T11:30:28.268Z,62.95
2018-05-24T11:31:36.936Z,61.6
2018-05-24T11:32:46.485Z,61.82
2018-05-24T11:33:55.139Z,61.05
2018-05-24T11:35:03.783Z,61.05
2018-05-24T11:36:12.438Z,61.43
2018-05-24T11:37:21.175Z,61.53
2018-05-24T11:38:29.750Z,60.95
2018-05-24T11:39:38.408Z,60.95
2018-05-24T11:40:47.309Z,60.75
2018-05-24T11:41:55.967Z,61.21
2018-05-24T11:43:04.635Z,61.6
2018-05-24T11:44:13.548Z,61.89
2018-05-24T11:45:22.188Z,61.4
2018-05-24T11:46:30.845Z,61.5
2018-05-24T11:47:39.492Z,61.57
2018-05-24T11:48:48.427Z,62.15
2018-05-24T11:49:57.070Z,62.92
2018-05-24T11:51:05.730Z,63.28
2018-05-24T11:52:14.390Z,62.89
2018-05-24T11:53:23.053Z,63.76
2018-05-24T11:54:31.704Z,64.79
2018-05-24T11:55:40.352Z,65.27
2018-05-24T11:56:49.009Z,65.66
2018-05-24T11:57:57.656Z,65.66
2018-05-24T11:59:06.321Z,65.95
2018-05-24T12:00:14.965Z,65.63
2018-05-24T12:01:23.624Z,66.69
2018-05-24T12:02:32.270Z,66.88
2018-05-24T12:03:40.929Z,67.27
2018-05-24T12:04:49.569Z,67.07
2018-05-24T12:05:58.489Z,66.91
2018-05-24T12:07:07.437Z,66.3
2018-05-24T12:08:16.055Z,66.53
2018-05-24T12:09:24.704Z,66.05
2018-05-24T12:10:33.358Z,66.24
2018-05-24T12:11:42.005Z,66.4
2018-05-24T12:12:50.663Z,66.2
2018-05-24T12:13:59.320Z,66.49
2018-05-24T12:15:08.053Z,66.59
2018-05-24T12:16:17.247Z,67.07
2018-05-24T12:17:25.893Z,66.97
2018-05-24T12:18:34.545Z,66.97
2018-05-24T12:19:43.197Z,67.46
2018-05-24T12:20:51.855Z,66.97
2018-05-24T12:22:00.505Z,67.07
2018-05-24T12:23:09.167Z,67.75
2018-05-24T12:24:17.821Z,67.46
2018-05-24T12:25:26.469Z,67.75
2018-05-24T12:26:35.121Z,68.13
2018-05-24T12:27:43.783Z,68.23
2018-05-24T12:28:52.433Z,68.23
2018-05-24T12:30:01.095Z,67.55
2018-05-24T12:31:09.744Z,67.75
2018-05-24T12:32:18.394Z,68.26
2018-05-24T12:33:27.046Z,67.88
2018-05-24T12:34:35.692Z,67.11
2018-05-24T12:35:44.351Z,67.11
2018-05-24T12:36:53.002Z,67.59
2018-05-24T12:38:01.654Z,67.97
2018-05-24T12:39:10.636Z,67.78
2018-05-24T12:40:19.483Z,68.07
2018-05-24T12:41:28.139Z,67.69
2018-05-24T12:42:36.913Z,67.11
2018-05-24T12:43:45.919Z,67.88
2018-05-24T12:44:54.968Z,68.65
2018-05-24T12:46:03.857Z,68.94
2018-05-24T12:47:12.512Z,68.55
2018-05-24T12:48:21.424Z,68.26
2018-05-24T12:49:30.343Z,67.97
2018-05-24T12:50:38.996Z,68.81
2018-05-24T12:51:47.652Z,69
2018-05-24T12:52:56.307Z,69.2
2018-05-24T12:54:04.955Z,69.55
2018-05-24T12:55:13.605Z,70.8
2018-05-24T12:56:22.256Z,71
2018-05-24T12:57:30.935Z,71.67
2018-05-24T12:58:39.633Z,72.02
2018-05-24T12:59:48.283Z,72.31
2018-05-24T13:00:57.467Z,72.69
2018-05-24T13:02:06.122Z,72.21
2018-05-24T13:03:15.025Z,72.89
2018-05-24T13:04:23.677Z,72.79
2018-05-24T13:05:32.332Z,73.95
2018-05-24T13:06:41.347Z,73.47
2018-05-24T13:07:50.126Z,73.66
2018-05-24T13:08:59.042Z,74.33
2018-05-24T13:10:07.694Z,74.14
2018-05-24T13:11:16.432Z,72.99
2018-05-24T13:12:25.261Z,73.57
2018-05-24T13:13:34.175Z,73.66
2018-05-24T13:14:42.831Z,73.95
2018-05-24T13:15:51.484Z,73.95
2018-05-24T13:17:00.184Z,72.69
2018-05-24T13:18:09.219Z,73.18
2018-05-24T13:19:17.872Z,72.69
2018-05-24T13:20:26.528Z,72.41
2018-05-24T13:21:35.442Z,72.89
2018-05-24T13:22:44.096Z,72.25
2018-05-24T13:23:52.747Z,72.25
2018-05-24T13:25:01.400Z,72.73
2018-05-24T13:26:10.313Z,73.79
2018-05-24T13:27:18.965Z,74.33
2018-05-24T13:28:27.878Z,73.69
2018-05-24T13:29:36.528Z,74.18
2018-05-24T13:30:45.444Z,73.79
2018-05-24T13:31:54.355Z,72.25
2018-05-24T13:33:03.008Z,72.99
2018-05-24T13:34:11.920Z,72.79
2018-05-24T13:35:20.580Z,73.27
2018-05-24T13:36:29.496Z,73.37
2018-05-24T13:37:38.148Z,74.05
2018-05-24T13:38:46.794Z,73.95
2018-05-24T13:39:55.452Z,73.57
2018-05-24T13:41:04.103Z,73.57
2018-05-24T13:42:13.025Z,73.85
2018-05-24T13:43:21.687Z,73.75
2018-05-24T13:44:30.862Z,74.14
2018-05-24T13:45:39.512Z,73.75
2018-05-24T13:46:48.164Z,74.05
2018-05-24T13:47:56.817Z,73.66
2018-05-24T13:49:05.464Z,74.43
2018-05-24T13:50:14.115Z,74.62
2018-05-24T13:51:22.766Z,74.14
2018-05-24T13:52:31.426Z,75.45
2018-05-24T13:53:40.069Z,75.07
2018-05-24T13:54:48.720Z,75.84
2018-05-24T13:55:57.631Z,75.65
2018-05-24T13:57:06.555Z,76.13
2018-05-24T13:58:15.201Z,76.23
2018-05-24T13:59:23.856Z,75.93
2018-05-24T14:00:32.503Z,76.71
2018-05-24T14:01:41.165Z,76.51
2018-05-24T14:02:50.086Z,77
2018-05-24T14:03:58.995Z,76.96
2018-05-24T14:05:07.641Z,77.15
2018-05-24T14:06:16.289Z,77.25
2018-05-24T14:07:24.947Z,77.73
2018-05-24T14:08:33.859Z,77.53
2018-05-24T14:09:42.516Z,78.5
2018-05-24T14:10:51.156Z,78.79
2018-05-24T14:11:59.816Z,79.17
2018-05-24T14:13:08.464Z,79.27
2018-05-24T14:14:17.123Z,78.98
2018-05-24T14:15:26.029Z,79.27
2018-05-24T14:16:34.695Z,79.27
2018-05-24T14:17:43.608Z,79.17
2018-05-24T14:18:52.260Z,79.36
2018-05-24T14:20:00.899Z,78.73
2018-05-24T14:21:09.555Z,79.08
2018-05-24T14:22:18.214Z,78.73
2018-05-24T14:23:26.868Z,79.08
2018-05-24T14:24:36.056Z,78.88
2018-05-24T14:25:44.698Z,79.94
2018-05-24T14:26:53.368Z,79.56
2018-05-24T14:28:02.001Z,79.85
2018-05-24T14:29:10.932Z,79.85
2018-05-24T14:30:19.573Z,79.75
2018-05-24T14:31:28.490Z,80.62
2018-05-24T14:32:37.137Z,80.71
2018-05-24T14:33:45.795Z,81.25
2018-05-24T14:34:54.438Z,81.63
2018-05-24T14:36:03.090Z,81.83
2018-05-24T14:37:12.008Z,81.4
2018-05-24T14:38:20.660Z,82.08
2018-05-24T14:39:29.308Z,81.98
2018-05-24T14:40:37.955Z,82.37
2018-05-24T14:41:46.602Z,82.37
2018-05-24T14:42:55.250Z,82.56
2018-05-24T14:44:03.909Z,82.94
2018-05-24T14:45:12.554Z,83.23
2018-05-24T14:46:21.215Z,83.14
2018-05-24T14:47:30.196Z,83.14
2018-05-24T14:48:38.821Z,83.14